Ehrenfeld, Pennsylvania
Current Conditions -  °F | °C
As of 12:54 PM on Monday 24 Nov 2014 (Local Time) from KJST Reporting Station
Broken Clouds Broken Clouds  
Wind Chill: 65°   Ceiling: 7000
Heat Index: 65°   Visibility: 10mi
Dew Point: 38°   Wind: 28mph
Humidity: 37%   Direction: 230°SW
Pressure: 29.48"   Gusts: 35mph
Location:  40.3793°N, 78.7888°W
Report Text: KJST 241754Z AUTO 23024G30KT 10SM BKN070 BKN085 18/03 A2948 RMK AO2 PK WND 23038/1717 SLP977 T01830033 10189 20122 56014
Loading
Personal Weather Stations






























Interactive Weather Map New forecast layout! Learn more

10-Day Weather Forecast

Advertisements
Track Severe Weather on mobile